createdAt,value
2019-05-03T00:01:12.904Z,9.60
2019-05-03T00:03:42.527Z,9.60
2019-05-03T00:06:12.057Z,9.60
2019-05-03T00:08:41.517Z,9.60
2019-05-03T00:11:10.081Z,9.60
2019-05-03T00:13:38.498Z,9.60
2019-05-03T00:16:12.217Z,9.50
2019-05-03T00:18:42.208Z,9.50
2019-05-03T00:21:11.688Z,9.40
2019-05-03T00:23:41.774Z,9.40
2019-05-03T00:26:12.003Z,9.40
2019-05-03T00:28:42.526Z,9.40
2019-05-03T00:31:12.480Z,9.40
2019-05-03T00:33:42.864Z,9.40
2019-05-03T00:36:15.601Z,9.40
2019-05-03T00:38:44.104Z,9.30
2019-05-03T00:41:12.601Z,9.30
2019-05-03T00:43:42.358Z,9.30
2019-05-03T00:46:12.644Z,9.30
2019-05-03T00:48:43.036Z,9.40
2019-05-03T00:51:11.785Z,9.40
2019-05-03T00:53:42.268Z,9.40
2019-05-03T00:56:12.144Z,9.30
2019-05-03T00:58:48.597Z,9.40
2019-05-03T01:01:17.880Z,9.40
2019-05-03T01:03:52.603Z,9.40
2019-05-03T01:06:22.377Z,9.40
2019-05-03T01:08:52.253Z,9.40
2019-05-03T01:11:22.273Z,9.50
2019-05-03T01:13:52.158Z,9.50
2019-05-03T01:16:22.801Z,9.50
2019-05-03T01:18:52.330Z,9.50
2019-05-03T01:21:22.573Z,9.50
2019-05-03T01:23:52.583Z,9.50
2019-05-03T01:26:22.632Z,9.50
2019-05-03T01:28:52.095Z,9.50
2019-05-03T01:31:22.652Z,9.50
2019-05-03T01:33:51.663Z,9.50
2019-05-03T01:36:22.586Z,9.50
2019-05-03T01:38:52.959Z,9.60
2019-05-03T01:41:21.737Z,9.50
2019-05-03T01:43:52.421Z,9.50
2019-05-03T01:46:22.592Z,9.50
2019-05-03T01:49:01.657Z,9.50
2019-05-03T01:51:44.080Z,9.50
2019-05-03T01:54:12.593Z,9.50
2019-05-03T01:56:49.995Z,9.50
2019-05-03T01:59:12.324Z,9.50
2019-05-03T02:01:45.314Z,9.50
2019-05-03T02:04:15.368Z,9.50
2019-05-03T02:06:43.804Z,9.50
2019-05-03T02:09:12.332Z,9.50
2019-05-03T02:11:42.157Z,9.50
2019-05-03T02:14:12.403Z,9.50
2019-05-03T02:16:42.021Z,9.50
2019-05-03T02:19:12.512Z,9.50
2019-05-03T02:21:41.693Z,9.50
2019-05-03T02:24:11.844Z,9.50
2019-05-03T02:26:42.347Z,9.50
2019-05-03T02:29:12.555Z,9.50
2019-05-03T02:31:43.691Z,9.50
2019-05-03T02:34:12.555Z,9.50
2019-05-03T02:36:42.860Z,9.50
2019-05-03T02:39:13.539Z,9.50
2019-05-03T02:41:45.233Z,9.50
2019-05-03T02:44:15.619Z,9.50
2019-05-03T02:46:45.808Z,9.50
2019-05-03T02:49:21.850Z,9.50
2019-05-03T02:51:50.264Z,9.50
2019-05-03T02:54:18.689Z,9.50
2019-05-03T02:56:47.106Z,9.50
2019-05-03T02:59:16.057Z,9.50
2019-05-03T03:01:46.542Z,9.50
2019-05-03T03:04:15.933Z,9.50
2019-05-03T03:06:47.174Z,9.40
2019-05-03T03:09:19.136Z,9.40
2019-05-03T03:11:55.961Z,9.40
2019-05-03T03:14:26.998Z,9.50
2019-05-03T03:16:58.089Z,9.50
2019-05-03T03:19:31.230Z,9.50
2019-05-03T03:22:05.963Z,9.50
2019-05-03T03:24:37.107Z,9.50
2019-05-03T03:27:07.352Z,9.40
2019-05-03T03:29:36.443Z,9.30
2019-05-03T03:32:19.969Z,9.20
2019-05-03T03:35:03.396Z,9.20
2019-05-03T03:37:30.670Z,9.20
2019-05-03T03:39:59.272Z,9.10
2019-05-03T03:42:29.046Z,9.10
2019-05-03T03:44:58.408Z,9.10
2019-05-03T03:47:30.083Z,9.00
2019-05-03T03:49:59.698Z,9.00
2019-05-03T03:52:30.204Z,9.10
2019-05-03T03:55:00.868Z,9.00
2019-05-03T03:57:31.849Z,9.00
2019-05-03T04:00:01.262Z,9.00
2019-05-03T04:02:29.801Z,9.00
2019-05-03T04:04:58.438Z,8.90
2019-05-03T04:07:27.515Z,9.00
2019-05-03T04:09:56.352Z,9.00
2019-05-03T04:12:26.469Z,8.90
2019-05-03T04:14:59.605Z,8.90
2019-05-03T04:17:29.741Z,8.90
2019-05-03T04:19:59.119Z,8.90
2019-05-03T04:22:27.678Z,8.90
2019-05-03T04:24:56.246Z,8.90
2019-05-03T04:27:45.559Z,8.90
2019-05-03T04:30:16.550Z,8.90
2019-05-03T04:32:45.512Z,8.80
2019-05-03T04:35:16.466Z,8.90
2019-05-03T04:37:45.392Z,8.80
2019-05-03T04:40:15.579Z,8.80
2019-05-03T04:42:46.507Z,8.90
2019-05-03T04:45:36.733Z,8.90
2019-05-03T04:48:05.980Z,8.80
2019-05-03T04:50:36.649Z,8.80
2019-05-03T04:53:25.916Z,8.80
2019-05-03T04:55:55.920Z,8.70
2019-05-03T04:58:25.823Z,8.80
2019-05-03T05:00:55.421Z,8.80
2019-05-03T05:03:26.433Z,8.80
2019-05-03T05:05:55.524Z,8.80
2019-05-03T05:08:25.309Z,8.80
2019-05-03T05:10:55.987Z,8.80
2019-05-03T05:13:25.088Z,8.90
2019-05-03T05:15:55.132Z,8.90
2019-05-03T05:18:31.156Z,8.90
2019-05-03T05:21:04.658Z,8.90
2019-05-03T05:24:02.726Z,8.90
2019-05-03T05:26:41.749Z,8.90
2019-05-03T05:29:21.313Z,8.90
2019-05-03T05:31:49.726Z,8.90
2019-05-03T05:34:18.163Z,9.00
2019-05-03T05:36:46.999Z,8.90
2019-05-03T05:39:18.725Z,8.90
2019-05-03T05:41:47.025Z,8.90
2019-05-03T05:44:15.444Z,9.00
2019-05-03T05:47:07.842Z,8.90
2019-05-03T05:49:40.631Z,8.90
2019-05-03T05:52:09.052Z,8.90
2019-05-03T05:54:39.479Z,8.90
2019-05-03T05:57:25.624Z,8.90
2019-05-03T06:00:05.008Z,8.80
2019-05-03T06:02:35.934Z,8.90
2019-05-03T06:05:04.907Z,8.80
2019-05-03T06:07:35.246Z,8.80
2019-05-03T06:12:48.980Z,8.80
2019-05-03T06:15:54.847Z,8.80
2019-05-03T06:23:25.145Z,8.60
2019-05-03T06:25:54.555Z,8.20
2019-05-03T06:31:10.461Z,7.80
2019-05-03T06:48:54.299Z,7.40
2019-05-03T06:51:24.736Z,7.40
2019-05-03T06:56:24.991Z,7.30
2019-05-03T07:06:44.827Z,7.10
2019-05-03T07:09:32.107Z,7.10
2019-05-03T07:12:00.526Z,7.10
2019-05-03T07:14:37.491Z,7.10
2019-05-03T07:17:05.992Z,7.10
2019-05-03T07:19:37.852Z,7.10
2019-05-03T07:24:45.501Z,7.20
2019-05-03T07:27:15.931Z,7.20
2019-05-03T07:29:44.607Z,7.20
2019-05-03T07:32:15.477Z,7.30
2019-05-03T07:34:45.301Z,7.30
2019-05-03T07:37:14.565Z,7.40
2019-05-03T07:42:11.289Z,7.40
2019-05-03T07:52:07.026Z,7.40
2019-05-03T07:54:35.719Z,7.40
2019-05-03T07:57:10.553Z,7.40
2019-05-03T07:59:39.225Z,7.40
2019-05-03T08:02:07.731Z,7.40
2019-05-03T08:04:36.607Z,7.50
2019-05-03T08:07:05.021Z,7.50
2019-05-03T08:09:35.010Z,7.60
2019-05-03T08:12:05.137Z,7.50
2019-05-03T08:14:35.686Z,7.70
2019-05-03T08:17:05.030Z,7.90
2019-05-03T08:22:25.607Z,8.00
2019-05-03T08:24:55.501Z,8.10
2019-05-03T08:27:25.200Z,8.10
2019-05-03T08:29:55.565Z,8.10
2019-05-03T08:35:11.902Z,8.10
2019-05-03T08:38:01.904Z,8.10
2019-05-03T08:40:49.701Z,8.10
2019-05-03T08:43:18.356Z,8.10
2019-05-03T08:50:45.094Z,8.10
2019-05-03T08:53:15.466Z,8.10
2019-05-03T08:55:44.966Z,8.10
2019-05-03T08:58:15.533Z,8.20
2019-05-03T09:03:14.535Z,8.30
2019-05-03T09:05:45.327Z,8.30
2019-05-03T09:08:15.557Z,8.40
2019-05-03T09:10:54.418Z,8.40
2019-05-03T09:13:22.793Z,8.60
2019-05-03T09:21:05.113Z,8.70
2019-05-03T09:23:35.645Z,8.80
2019-05-03T09:28:34.869Z,8.90
2019-05-03T09:31:04.675Z,8.90
2019-05-03T09:36:02.351Z,9.00
2019-05-03T09:38:30.921Z,9.10
2019-05-03T09:40:59.357Z,9.10
2019-05-03T09:43:27.779Z,9.20
2019-05-03T09:45:57.325Z,9.30
2019-05-03T09:48:34.712Z,9.30
2019-05-03T09:51:05.160Z,9.30
2019-05-03T09:53:35.768Z,9.30
2019-05-03T09:56:05.104Z,9.30
2019-05-03T09:58:37.763Z,9.40
2019-05-03T10:01:06.082Z,9.40
2019-05-03T10:03:34.622Z,9.40
2019-05-03T10:06:04.846Z,9.40
2019-05-03T10:08:53.152Z,9.50
2019-05-03T10:11:21.994Z,9.50
2019-05-03T10:13:50.410Z,9.50
2019-05-03T10:16:19.977Z,9.60
2019-05-03T10:18:49.090Z,9.70
2019-05-03T10:21:17.617Z,9.70
2019-05-03T10:23:46.011Z,9.90
2019-05-03T10:26:15.233Z,10.00
2019-05-03T10:28:43.697Z,10.10
2019-05-03T10:31:12.117Z,10.10
2019-05-03T10:33:44.786Z,10.20
2019-05-03T10:36:15.190Z,10.20
2019-05-03T10:39:04.671Z,10.30
2019-05-03T10:41:34.635Z,10.40
2019-05-03T10:44:02.833Z,10.60
2019-05-03T10:46:50.625Z,10.70
2019-05-03T10:56:49.640Z,11.30
2019-05-03T11:09:48.106Z,11.80
2019-05-03T11:12:05.350Z,11.90
2019-05-03T11:22:05.511Z,12.30
2019-05-03T11:29:35.400Z,12.40
2019-05-03T11:32:10.076Z,12.40
2019-05-03T11:37:21.677Z,12.30
2019-05-03T11:54:45.495Z,11.40
2019-05-03T11:59:45.273Z,11.20
2019-05-03T12:02:15.520Z,11.30
2019-05-03T12:04:45.837Z,11.40
2019-05-03T12:07:18.398Z,11.60
2019-05-03T12:09:46.226Z,11.80
2019-05-03T12:22:18.524Z,12.50
2019-05-03T12:27:16.561Z,12.70
2019-05-03T12:29:45.021Z,12.70
2019-05-03T12:37:11.119Z,8.90
2019-05-03T13:04:37.557Z,14.20
2019-05-03T13:07:10.854Z,14.40
2019-05-03T13:09:39.268Z,14.50
2019-05-03T13:12:09.563Z,14.40
2019-05-03T13:17:06.147Z,14.10
2019-05-03T13:22:03.619Z,13.90
2019-05-03T13:29:28.204Z,13.40
2019-05-03T13:32:01.815Z,13.30
2019-05-03T13:34:26.777Z,13.30
2019-05-03T13:39:26.296Z,13.30
2019-05-03T13:41:54.969Z,13.40
2019-05-03T13:49:23.150Z,13.40
2019-05-03T14:06:44.718Z,13.30
2019-05-03T14:11:44.851Z,13.10
2019-05-03T14:19:14.729Z,12.80
2019-05-03T14:21:44.809Z,12.80
2019-05-03T14:24:13.249Z,12.70
2019-05-03T14:34:07.254Z,12.70
2019-05-03T14:41:36.480Z,12.80
2019-05-03T14:51:34.952Z,12.80
2019-05-03T14:54:05.344Z,12.80
2019-05-03T14:59:27.410Z,12.60
2019-05-03T15:02:00.484Z,12.60
2019-05-03T15:06:57.948Z,12.40
2019-05-03T15:09:26.581Z,12.50
2019-05-03T15:14:25.141Z,12.60
2019-05-03T15:21:54.746Z,12.90
2019-05-03T15:24:25.077Z,12.90
2019-05-03T15:26:55.533Z,13.10
2019-05-03T15:31:55.290Z,13.20
2019-05-03T15:37:14.817Z,13.20
2019-05-03T15:39:45.204Z,13.20
2019-05-03T15:42:14.616Z,13.20
2019-05-03T15:44:47.363Z,13.20
2019-05-03T15:47:17.493Z,13.20
2019-05-03T15:49:45.901Z,13.10
2019-05-03T15:52:35.302Z,13.00
2019-05-03T15:55:06.131Z,13.00
2019-05-03T15:57:35.741Z,12.90
2019-05-03T16:00:07.750Z,12.90
2019-05-03T16:02:36.595Z,12.90
2019-05-03T16:05:06.353Z,12.80
2019-05-03T16:07:35.508Z,12.80
2019-05-03T16:10:05.185Z,12.80
2019-05-03T16:12:34.430Z,12.80
2019-05-03T16:15:24.423Z,12.90
2019-05-03T16:17:54.542Z,12.90
2019-05-03T16:20:22.722Z,12.80
2019-05-03T16:22:51.251Z,12.70
2019-05-03T16:25:20.235Z,12.50
2019-05-03T16:27:50.280Z,12.50
2019-05-03T16:30:20.472Z,12.40
2019-05-03T16:32:49.157Z,12.40
2019-05-03T16:35:17.962Z,12.20
2019-05-03T16:37:46.454Z,12.20
2019-05-03T16:40:16.794Z,12.10
2019-05-03T16:42:45.165Z,12.00
2019-05-03T16:47:44.849Z,11.90
2019-05-03T16:50:14.470Z,11.80
2019-05-03T16:53:02.360Z,11.80
2019-05-03T16:55:30.847Z,11.70
2019-05-03T16:57:59.362Z,11.70
2019-05-03T17:00:28.173Z,11.60
2019-05-03T17:02:59.620Z,11.60
2019-05-03T17:05:41.748Z,11.50
2019-05-03T17:08:25.095Z,11.50
2019-05-03T17:11:14.838Z,11.50
2019-05-03T17:13:45.688Z,11.50
2019-05-03T17:16:14.546Z,11.50
2019-05-03T17:18:44.636Z,11.50
2019-05-03T17:21:32.529Z,11.50
2019-05-03T17:24:00.953Z,11.60
2019-05-03T17:26:29.366Z,11.60
2019-05-03T17:28:57.795Z,11.70
2019-05-03T17:31:26.200Z,11.70
2019-05-03T17:33:56.893Z,11.70
2019-05-03T17:36:25.138Z,11.80
2019-05-03T17:38:55.639Z,11.80
2019-05-03T17:41:31.706Z,11.80
2019-05-03T17:44:11.036Z,11.80
2019-05-03T17:46:39.811Z,11.70
2019-05-03T17:49:08.235Z,11.70
2019-05-03T17:51:41.143Z,11.70
2019-05-03T17:54:14.559Z,11.70
2019-05-03T17:57:10.142Z,11.60
2019-05-03T17:59:40.205Z,11.50
2019-05-03T18:02:26.456Z,11.50
2019-05-03T18:05:14.538Z,11.50
2019-05-03T18:08:01.182Z,11.40
2019-05-03T18:25:24.851Z,10.90
2019-05-03T18:27:55.199Z,10.80
2019-05-03T18:30:23.766Z,10.70
2019-05-03T18:50:22.929Z,10.50
2019-05-03T18:52:51.627Z,10.50
2019-05-03T19:02:47.543Z,10.40
2019-05-03T19:05:17.920Z,10.30
2019-05-03T19:07:50.933Z,10.30
2019-05-03T19:13:05.839Z,10.20
2019-05-03T19:20:35.112Z,10.10
2019-05-03T19:25:44.006Z,9.80
2019-05-03T19:28:07.443Z,9.60
2019-05-03T19:40:29.385Z,9.20
2019-05-03T19:45:26.259Z,9.30
2019-05-03T19:47:55.177Z,9.30
2019-05-03T19:57:57.244Z,9.30
2019-05-03T20:00:27.294Z,9.30
2019-05-03T20:05:34.857Z,9.10
2019-05-03T20:08:05.225Z,9.10
2019-05-03T20:25:27.391Z,9.10
2019-05-03T20:32:55.552Z,9.00
2019-05-03T20:35:25.179Z,9.00
2019-05-03T20:37:55.348Z,9.10
2019-05-03T20:40:25.560Z,9.10
2019-05-03T20:42:58.550Z,9.00
2019-05-03T20:45:29.011Z,9.10
2019-05-03T20:50:27.452Z,9.10
2019-05-03T21:05:32.870Z,9.30
2019-05-03T21:07:58.691Z,9.30
2019-05-03T21:10:27.105Z,9.30
2019-05-03T21:12:55.518Z,9.30
2019-05-03T21:18:04.847Z,9.30
2019-05-03T21:28:13.630Z,9.20
2019-05-03T21:35:41.757Z,9.00
2019-05-03T21:38:08.356Z,9.00
2019-05-03T21:55:35.429Z,8.70
2019-05-03T21:58:04.678Z,8.60
2019-05-03T22:03:05.684Z,8.50
2019-05-03T22:05:35.403Z,8.50
2019-05-03T22:08:04.569Z,8.50
2019-05-03T22:13:04.886Z,8.50
2019-05-03T22:21:13.200Z,8.50
2019-05-03T22:26:17.416Z,8.50
2019-05-03T22:36:14.501Z,8.40
2019-05-03T22:41:11.176Z,8.30
2019-05-03T22:43:39.609Z,8.20
2019-05-03T22:46:08.016Z,8.10
2019-05-03T22:53:34.356Z,8.00
2019-05-03T22:56:04.748Z,7.90
2019-05-03T22:58:35.342Z,7.90
2019-05-03T23:01:03.172Z,7.90
2019-05-03T23:03:35.318Z,7.90
2019-05-03T23:06:05.069Z,8.00
2019-05-03T23:08:34.496Z,7.90
2019-05-03T23:26:14.854Z,7.90
2019-05-03T23:36:15.211Z,7.70
2019-05-03T23:41:15.232Z,7.40
2019-05-03T23:48:44.663Z,7.20
2019-05-03T23:56:15.043Z,7.00
2019-05-03T23:58:44.638Z,7.10
